Time;durP1;ratioP1;P1;durP2;ratioP2;P2;SDS_P1;SDS_P2;PMS_P1;PMS_P2;Temp;Humidity;BMP_temperature;BMP_pressure;BME280_temperature;BME280_humidity;BME280_pressure;Samples;Min_cycle;Max_cycle;Signal;HPM_P1;HPM_P2
2022/06/23 00:01:21;;;;;;;1999.90;999.90;;;17.60;99.90;;;;;;4937662;29;20031;-81
2022/06/23 00:03:50;;;;;;;;;;;17.60;99.90;;;;;;4938207;29;20134;-76
2022/06/23 00:06:45;;;;;;;1999.90;999.90;;;17.60;99.90;;;;;;4937557;29;19914;-77
2022/06/23 00:09:29;;;;;;;1999.90;999.90;;;17.60;99.90;;;;;;4937893;29;20028;-76
2022/06/23 00:11:55;;;;;;;1999.90;999.90;;;17.60;99.90;;;;;;4937332;29;20028;-81
2022/06/23 00:14:21;;;;;;;1999.90;999.90;;;17.60;99.90;;;;;;4940175;29;20075;-76
2022/06/23 00:16:47;;;;;;;1999.90;999.90;;;17.60;99.90;;;;;;4921629;29;20032;-81
2022/06/23 00:19:14;;;;;;;1999.90;999.90;;;17.50;99.90;;;;;;4920160;29;20027;-76
2022/06/23 00:21:43;;;;;;;1999.90;999.90;;;17.50;99.90;;;;;;4920210;29;20086;-78
2022/06/23 00:24:19;;;;;;;1999.90;999.90;;;17.50;99.90;;;;;;4937950;29;20526;-77
2022/06/23 00:26:46;;;;;;;1999.90;999.90;;;17.50;99.90;;;;;;4938641;29;20043;-80
2022/06/23 00:29:15;;;;;;;1999.90;999.90;;;17.50;99.90;;;;;;4937453;29;20031;-81
2022/06/23 00:31:45;;;;;;;1999.90;999.90;;;17.50;99.90;;;;;;4937400;29;20080;-76
2022/06/23 00:34:22;;;;;;;1999.90;999.90;;;17.50;99.90;;;;;;4919601;29;20403;-77
2022/06/23 00:36:54;;;;;;;1999.90;999.90;;;17.50;99.90;;;;;;4937151;29;20376;-76
2022/06/23 00:39:28;;;;;;;1999.90;999.90;;;17.40;99.90;;;;;;4937019;29;20024;-77
2022/06/23 00:41:54;;;;;;;1999.90;999.90;;;17.40;99.90;;;;;;4920659;29;20031;-81
2022/06/23 00:44:45;;;;;;;1999.90;999.90;;;17.40;99.90;;;;;;4936861;29;20050;-80
2022/06/23 00:47:18;;;;;;;1999.90;999.90;;;17.40;99.90;;;;;;4936878;29;20488;-76
2022/06/23 00:50:02;;;;;;;1999.90;999.90;;;17.40;99.90;;;;;;4936799;29;20051;-77
2022/06/23 00:52:45;;;;;;;1999.90;999.90;;;17.50;99.90;;;;;;4936500;29;20032;-77
2022/06/23 00:55:13;;;;;;;;;;;17.40;99.90;;;;;;4946198;29;20031;-76
2022/06/23 00:57:54;;;;;;;1999.90;999.90;;;17.50;99.90;;;;;;4934767;29;20378;-77
2022/06/23 01:00:40;;;;;;;1999.90;999.90;;;17.50;99.90;;;;;;4970405;28;20027;-80
2022/06/23 01:03:38;;;;;;;1999.90;999.90;;;17.50;99.90;;;;;;4974828;28;20110;-77
2022/06/23 01:06:32;;;;;;;1999.90;999.90;;;17.50;99.90;;;;;;4966644;28;20509;-76
2022/06/23 01:09:18;;;;;;;1999.90;999.90;;;17.40;99.90;;;;;;4956174;29;20114;-81
2022/06/23 01:12:13;;;;;;;1999.90;999.90;;;17.40;99.90;;;;;;4955370;29;20118;-77
2022/06/23 01:15:02;;;;;;;1999.90;999.90;;;17.40;99.90;;;;;;4919221;29;20511;-76
2022/06/23 01:18:00;;;;;;;1999.90;999.90;;;17.40;99.90;;;;;;4938245;29;20506;-76
2022/06/23 01:20:45;;;;;;;1999.90;999.90;;;17.30;99.90;;;;;;4956420;29;20023;-76
2022/06/23 01:24:02;;;;;;;1999.90;999.90;;;17.30;99.90;;;;;;4955282;29;20030;-78
2022/06/23 01:26:30;;;;;;;1999.90;999.90;;;17.20;99.90;;;;;;4950692;29;20537;-78
2022/06/23 01:29:21;;;;;;;1999.90;999.90;;;17.20;99.90;;;;;;4955234;29;20023;-80
2022/06/23 01:32:09;;;;;;;1999.90;999.90;;;17.20;99.90;;;;;;4955292;29;20055;-80
2022/06/23 01:35:01;;;;;;;1999.90;999.90;;;17.20;99.90;;;;;;4937496;29;20050;-76
2022/06/23 01:37:38;;;;;;;1999.90;999.90;;;17.10;99.90;;;;;;4955583;28;20405;-81
2022/06/23 01:40:34;;;;;;;1999.90;999.90;;;17.10;99.90;;;;;;4952820;29;20409;-76
2022/06/23 01:43:17;;;;;;;1999.90;999.90;;;17.10;99.90;;;;;;4954997;28;20070;-81
2022/06/23 01:45:59;;;;;;;1999.90;999.90;;;17.00;99.90;;;;;;4956255;29;20066;-81
2022/06/23 01:48:51;;;;;;;1999.90;999.90;;;17.10;99.90;;;;;;4955024;29;20087;-80
2022/06/23 01:51:25;;;;;;;1999.90;999.90;;;17.10;99.90;;;;;;4954386;29;20050;-80
2022/06/23 01:53:54;;;;;;;1999.90;999.90;;;17.10;99.90;;;;;;4953868;29;20045;-80
2022/06/23 01:56:30;;;;;;;1999.90;999.90;;;17.10;99.90;;;;;;4935772;29;20099;-77
2022/06/23 01:59:00;;;;;;;1999.90;999.90;;;17.10;99.90;;;;;;4921006;29;20061;-80
2022/06/23 02:01:43;;;;;;;1999.90;999.90;;;17.20;99.90;;;;;;4935902;29;20130;-78
2022/06/23 02:04:19;;;;;;;1999.90;999.90;;;17.20;99.90;;;;;;4935715;29;20031;-81
2022/06/23 02:06:53;;;;;;;1999.90;999.90;;;17.20;99.90;;;;;;4934277;29;20050;-77
2022/06/23 02:09:40;;;;;;;1999.90;999.90;;;17.00;99.90;;;;;;4935753;29;20031;-81
2022/06/23 02:12:22;;;;;;;1999.90;999.90;;;16.90;99.90;;;;;;4936114;29;20050;-77
2022/06/23 02:14:50;;;;;;;1999.90;999.90;;;16.90;99.90;;;;;;4935679;29;20052;-79
2022/06/23 02:17:45;;;;;;;1999.90;999.90;;;16.80;99.90;;;;;;4935705;29;20036;-76
2022/06/23 02:20:16;;;;;;;1999.90;999.90;;;16.80;99.90;;;;;;4918894;29;20035;-76
2022/06/23 02:22:45;;;;;;;1999.90;999.90;;;16.70;99.90;;;;;;4935603;29;20032;-78
2022/06/23 02:25:26;;;;;;;1999.90;999.90;;;16.70;99.90;;;;;;4947626;29;20066;-77
2022/06/23 02:28:18;;;;;;;1999.90;999.90;;;16.70;99.90;;;;;;4935464;29;20586;-81
2022/06/23 02:30:53;;;;;;;1999.90;999.90;;;16.60;99.90;;;;;;4935585;29;20027;-81
2022/06/23 02:33:31;;;;;;;1999.90;999.90;;;16.50;99.90;;;;;;4934958;29;20039;-81
2022/06/23 02:36:06;;;;;;;1999.90;999.90;;;16.50;99.90;;;;;;4935393;29;20063;-76
2022/06/23 02:38:45;;;;;;;1999.90;999.90;;;16.50;99.90;;;;;;4935280;29;20027;-77
2022/06/23 02:41:27;;;;;;;1999.90;999.90;;;16.50;99.90;;;;;;4937020;29;20015;-81
2022/06/23 02:44:20;;;;;;;1999.90;999.90;;;16.50;99.90;;;;;;4917962;29;20138;-77
2022/06/23 02:46:57;;;;;;;;;;;16.40;99.90;;;;;;4918409;29;20063;-81
2022/06/23 02:49:29;;;;;;;1999.90;999.90;;;16.40;99.90;;;;;;4918375;29;19961;-78
2022/06/23 02:52:16;;;;;;;1999.90;999.90;;;16.40;99.90;;;;;;4935197;29;20043;-77
2022/06/23 02:55:02;;;;;;;1999.90;999.90;;;16.30;99.90;;;;;;4946721;29;20459;-78
2022/06/23 02:57:58;;;;;;;1999.90;999.90;;;16.40;99.90;;;;;;4968478;28;20069;-81
2022/06/23 03:00:39;;;;;;;1999.90;999.90;;;16.40;99.90;;;;;;4973579;28;20082;-77
2022/06/23 03:03:24;;;;;;;1999.90;999.90;;;16.40;99.90;;;;;;4946002;29;20467;-81
2022/06/23 03:06:03;;;;;;;1999.90;999.90;;;16.40;99.90;;;;;;4953921;29;20031;-81
2022/06/23 03:08:41;;;;;;;1999.90;999.90;;;16.40;99.90;;;;;;4954330;29;20042;-81
2022/06/23 03:11:54;;;;;;;1999.90;999.90;;;16.40;99.90;;;;;;4954301;29;20024;-81
2022/06/23 03:14:48;;;;;;;1999.90;999.90;;;16.40;99.90;;;;;;4942721;28;20042;-80
2022/06/23 03:17:32;;;;;;;1999.90;999.90;;;16.40;99.90;;;;;;4973331;28;20030;-81
2022/06/23 03:20:28;;;;;;;1999.90;999.90;;;16.40;99.90;;;;;;4973504;28;20062;-81
2022/06/23 03:23:04;;;;;;;1999.90;999.90;;;16.40;99.90;;;;;;4947445;29;20023;-77
2022/06/23 03:25:42;;;;;;;1999.90;999.90;;;16.40;99.90;;;;;;4954410;29;20402;-81
2022/06/23 03:28:23;;;;;;;1999.90;999.90;;;16.50;99.90;;;;;;4956002;28;20078;-77
2022/06/23 03:31:03;;;;;;;1999.90;999.90;;;16.50;99.90;;;;;;4957717;29;20027;-77
2022/06/23 03:33:43;;;;;;;1999.90;999.90;;;16.60;99.90;;;;;;4957677;29;20031;-81
2022/06/23 03:36:30;;;;;;;1999.90;999.90;;;16.60;99.90;;;;;;4956956;29;20027;-76
2022/06/23 03:42:18;;;;;;;1999.90;999.90;;;16.70;99.90;;;;;;4958638;28;20442;-81
2022/06/23 03:45:03;;;;;;;1999.90;999.90;;;16.70;99.90;;;;;;4957228;29;20051;-76
2022/06/23 03:47:44;;;;;;;1999.90;999.90;;;16.70;99.90;;;;;;4957190;29;20035;-81
2022/06/23 03:50:22;;;;;;;1999.90;999.90;;;16.60;99.90;;;;;;4948430;29;20394;-77
2022/06/23 03:53:08;;;;;;;1999.90;999.90;;;16.40;99.90;;;;;;4957146;29;20019;-78
2022/06/23 03:55:41;;;;;;;1999.90;999.90;;;16.20;99.90;;;;;;4957709;28;20746;-77
2022/06/23 03:58:28;;;;;;;1999.90;999.90;;;16.10;99.90;;;;;;4957071;29;20027;-77
2022/06/23 04:01:14;;;;;;;1999.90;999.90;;;16.00;99.90;;;;;;4953420;29;20443;-81
2022/06/23 04:03:57;;;;;;;1999.90;999.90;;;15.90;99.90;;;;;;4956824;29;20023;-78
2022/06/23 04:06:38;;;;;;;1999.90;999.90;;;15.80;99.90;;;;;;4948199;29;20035;-80
2022/06/23 04:09:17;;;;;;;1999.90;999.90;;;15.70;99.90;;;;;;4956947;29;20387;-77
2022/06/23 04:11:54;;;;;;;1999.90;999.90;;;15.70;99.90;;;;;;4957157;29;20027;-77
2022/06/23 04:14:41;;;;;;;1999.90;999.90;;;15.70;99.90;;;;;;4956131;29;20030;-78
2022/06/23 04:17:38;;;;;;;1999.90;999.90;;;15.70;99.90;;;;;;4958083;28;20069;-77
2022/06/23 04:20:16;;;;;;;1999.90;999.90;;;15.70;99.90;;;;;;4975832;28;20023;-77
2022/06/23 04:22:50;;;;;;;1999.90;999.90;;;15.70;99.90;;;;;;4975675;28;20031;-77
2022/06/23 04:25:25;;;;;;;1999.90;999.90;;;15.70;99.90;;;;;;4975837;28;20066;-81
2022/06/23 04:27:58;;;;;;;1999.90;999.90;;;15.70;99.90;;;;;;4975741;28;20022;-77
2022/06/23 04:30:30;;;;;;;1999.90;999.90;;;15.70;99.90;;;;;;4978277;28;20085;-78
2022/06/23 04:32:58;;;;;;;1999.90;999.90;;;15.80;99.90;;;;;;4958355;28;20134;-80
2022/06/23 04:35:29;;;;;;;1999.90;999.90;;;15.80;99.90;;;;;;4975190;28;20066;-81
2022/06/23 04:38:08;;;;;;;1999.90;999.90;;;15.80;99.90;;;;;;4971657;28;20487;-76
2022/06/23 04:40:37;;;;;;;1999.90;999.90;;;15.80;99.90;;;;;;4955234;28;20394;-76
2022/06/23 04:43:12;;;;;;;1999.90;999.90;;;15.80;99.90;;;;;;4956646;29;20402;-81
2022/06/23 04:45:43;;;;;;;1999.90;999.90;;;15.80;99.90;;;;;;4943020;29;20031;-80
2022/06/23 04:48:18;;;;;;;1999.90;999.90;;;15.80;99.90;;;;;;4956308;29;20039;-78
2022/06/23 04:51:22;;;;;;;1999.90;999.90;;;15.80;99.90;;;;;;4956476;29;20106;-77
2022/06/23 04:53:54;;;;;;;;;;;15.80;99.90;;;;;;4910580;29;20123;-79
2022/06/23 04:56:32;;;;;;;1999.90;999.90;;;15.90;99.90;;;;;;4937548;29;19965;-77
2022/06/23 04:59:18;;;;;;;1999.90;999.90;;;15.90;99.90;;;;;;4971296;28;20019;-77
2022/06/23 05:01:48;;;;;;;1999.90;999.90;;;16.00;99.90;;;;;;4941891;29;20073;-78
2022/06/23 05:04:28;;;;;;;1999.90;999.90;;;16.00;99.90;;;;;;4950399;29;20031;-77
2022/06/23 05:06:59;;;;;;;1999.90;999.90;;;16.00;99.90;;;;;;4934331;29;20031;-77
2022/06/23 05:09:34;;;;;;;1999.90;999.90;;;16.00;99.90;;;;;;4937644;29;20019;-80
2022/06/23 05:12:20;;;;;;;1999.90;999.90;;;16.10;99.90;;;;;;4959763;28;20368;-77
2022/06/23 05:15:13;;;;;;;1999.90;999.90;;;16.10;99.90;;;;;;4943271;29;20431;-77
2022/06/23 05:17:51;;;;;;;1999.90;999.90;;;16.10;99.90;;;;;;4954293;28;20087;-79
2022/06/23 05:20:24;;;;;;;1999.90;999.90;;;16.20;99.90;;;;;;4961407;28;20031;-77
2022/06/23 05:22:50;;;;;;;1999.90;999.90;;;16.20;99.90;;;;;;4969390;28;20027;-77
2022/06/23 05:25:16;;;;;;;1999.90;999.90;;;16.30;99.90;;;;;;4937508;29;20035;-78
2022/06/23 05:27:45;;;;;;;1999.90;999.90;;;16.30;99.90;;;;;;4961383;28;20482;-78
2022/06/23 05:30:25;;;;;;;1999.90;999.90;;;16.40;99.90;;;;;;4954873;28;20420;-79
2022/06/23 05:32:57;;;;;;;1999.90;999.90;;;16.40;99.90;;;;;;4960521;28;20067;-78
2022/06/23 05:35:25;;;;;;;1999.90;999.90;;;16.50;99.90;;;;;;4945774;28;20062;-77
2022/06/23 05:38:00;;;;;;;1999.90;999.90;;;16.60;99.90;;;;;;4967535;28;20035;-79
2022/06/23 05:40:37;;;;;;;1999.90;999.90;;;16.60;99.90;;;;;;4958091;28;20398;-78
2022/06/23 05:43:04;;;;;;;1999.90;999.90;;;16.70;99.90;;;;;;4955542;28;20093;-77
2022/06/23 05:45:40;;;;;;;1999.90;999.90;;;16.80;99.90;;;;;;4954758;29;20514;-78
2022/06/23 05:48:10;;;;;;;1999.90;999.90;;;16.90;99.90;;;;;;4956147;28;20024;-78
2022/06/23 05:50:50;;;;;;;1999.90;999.90;;;17.00;99.90;;;;;;4937983;28;20038;-77
2022/06/23 05:53:21;;;;;;;1999.90;999.90;;;17.10;99.90;;;;;;4964020;28;20494;-77
2022/06/23 05:55:54;;;;;;;1999.90;999.90;;;17.20;99.90;;;;;;4955078;28;20058;-76
2022/06/23 05:58:22;;;;;;;1999.90;999.90;;;17.20;99.90;;;;;;4954653;29;20027;-79
2022/06/23 06:01:06;;;;;;;1999.90;999.90;;;17.30;99.90;;;;;;4962564;28;20557;-77
2022/06/23 06:03:44;;;;;;;1999.90;999.90;;;17.30;99.90;;;;;;4948653;29;20026;-80
2022/06/23 06:06:11;;;;;;;1999.90;999.90;;;17.40;99.90;;;;;;4970107;28;20413;-77
2022/06/23 06:11:41;;;;;;;1999.90;999.90;;;17.60;99.90;;;;;;4968249;28;20114;-77
2022/06/23 06:14:07;;;;;;;1999.90;999.90;;;17.60;99.90;;;;;;4965417;28;20085;-76
2022/06/23 06:16:33;;;;;;;1999.90;999.90;;;17.70;99.90;;;;;;4947728;28;20379;-75
2022/06/23 06:18:59;;;;;;;1999.90;999.90;;;17.80;99.90;;;;;;4969215;28;20187;-81
2022/06/23 06:21:26;;;;;;;1999.90;999.90;;;17.90;99.90;;;;;;4966355;28;20070;-81
2022/06/23 06:24:04;;;;;;;1999.90;999.90;;;18.10;99.90;;;;;;4964850;28;20030;-81
2022/06/23 06:26:35;;;;;;;1999.90;999.90;;;18.20;99.90;;;;;;4968639;28;20019;-81
2022/06/23 06:29:17;;;;;;;1999.90;999.90;;;18.20;99.90;;;;;;4947447;28;20061;-81
2022/06/23 06:31:46;;;;;;;1999.90;999.90;;;18.30;99.90;;;;;;4951388;29;20545;-75
2022/06/23 06:34:21;;;;;;;1999.90;999.90;;;18.40;99.90;;;;;;4954329;29;20074;-75
2022/06/23 06:36:51;;;;;;;1999.90;999.90;;;18.40;99.90;;;;;;4953465;29;20058;-82
2022/06/23 06:39:25;;;;;;;1999.90;999.90;;;18.40;99.90;;;;;;4954785;29;20078;-82
2022/06/23 06:41:55;;;;;;;1999.90;999.90;;;18.50;99.90;;;;;;4954321;29;20101;-81
2022/06/23 06:44:21;;;;;;;1999.90;999.90;;;18.50;99.90;;;;;;4955234;28;20023;-75
2022/06/23 06:46:48;;;;;;;1999.90;999.90;;;18.50;99.90;;;;;;4953834;29;20038;-75
2022/06/23 06:49:25;;;;;;;1999.90;999.90;;;18.60;99.90;;;;;;4954374;29;20502;-75
2022/06/23 06:51:54;;;;;;;1999.90;999.90;;;18.80;99.90;;;;;;4937127;29;20038;-77
2022/06/23 06:54:28;;;;;;;1999.90;999.90;;;18.80;99.90;;;;;;4940858;28;20097;-75
2022/06/23 06:56:55;;;;;;;1999.90;999.90;;;18.90;99.90;;;;;;4956830;28;20522;-76
2022/06/23 06:59:56;;;;;;;1999.90;999.90;;;19.00;99.90;;;;;;4956776;28;20193;-76
2022/06/23 07:02:30;;;;;;;1999.90;999.90;;;19.10;99.90;;;;;;4914572;29;20066;-83
2022/06/23 07:05:19;;;;;;;1999.90;999.90;;;19.00;99.90;;;;;;4956528;29;20050;-83
2022/06/23 07:07:51;;;;;;;1999.90;999.90;;;19.10;99.90;;;;;;4939660;29;20471;-84
2022/06/23 07:10:22;;;;;;;1999.90;999.90;;;19.30;99.90;;;;;;4958230;28;20433;-76
2022/06/23 07:12:54;;;;;;;1999.90;999.90;;;19.70;99.90;;;;;;4952651;28;20035;-76
2022/06/23 07:15:45;;;;;;;1999.90;999.90;;;20.00;99.90;;;;;;4957160;28;20118;-82
2022/06/23 07:18:37;;;;;;;1999.90;999.90;;;20.20;99.90;;;;;;4931706;29;20430;-82
2022/06/23 07:21:06;;;;;;;1999.90;999.90;;;20.50;99.90;;;;;;4954550;28;20095;-76
2022/06/23 07:24:05;;;;;;;1999.90;999.90;;;21.00;99.90;;;;;;4965099;28;20026;-86
2022/06/23 07:26:49;;;;;;;1999.90;999.90;;;21.50;99.90;;;;;;4950786;28;20435;-74
2022/06/23 07:29:39;;;;;;;1999.90;999.90;;;21.60;99.90;;;;;;4956961;28;20023;-79
2022/06/23 07:32:32;;;;;;;1999.90;999.90;;;21.40;99.90;;;;;;4937331;29;20024;-74
2022/06/23 07:35:01;;;;;;;;;;;21.20;99.90;;;;;;4953921;28;20427;-74
2022/06/23 07:37:33;;;;;;;1999.90;999.90;;;21.40;99.90;;;;;;4953331;28;19921;-75
2022/06/23 07:40:03;;;;;;;1999.90;999.90;;;21.20;99.90;;;;;;4962415;28;20049;-73
2022/06/23 07:42:41;;;;;;;1999.90;999.90;;;20.90;99.90;;;;;;4941149;29;20034;-88
2022/06/23 07:45:26;;;;;;;1999.90;999.90;;;20.50;99.90;;;;;;4959857;28;20035;-86
2022/06/23 07:47:51;;;;;;;1999.90;999.90;;;20.30;99.90;;;;;;4952385;28;20035;-81
2022/06/23 07:50:17;;;;;;;1999.90;999.90;;;21.00;99.90;;;;;;4953413;28;20079;-75
2022/06/23 07:52:44;;;;;;;1999.90;999.90;;;20.70;99.90;;;;;;4954819;28;20027;-75
2022/06/23 07:55:28;;;;;;;1999.90;999.90;;;22.30;99.90;;;;;;4957720;28;20146;-81
2022/06/23 07:57:54;;;;;;;1999.90;999.90;;;24.20;99.90;;;;;;4952731;29;20031;-76
2022/06/23 08:00:20;;;;;;;1999.90;999.90;;;26.20;99.90;;;;;;4951600;28;20442;-76
2022/06/23 08:03:01;;;;;;;1999.90;999.90;;;27.80;99.70;;;;;;4957604;28;20055;-74
2022/06/23 08:05:37;;;;;;;1999.90;999.90;;;29.10;96.90;;;;;;4953961;28;20070;-75
2022/06/23 08:08:03;;;;;;;1999.90;999.90;;;29.90;94.80;;;;;;4955322;28;20027;-77
2022/06/23 08:10:31;;;;;;;1999.90;999.90;;;30.30;95.10;;;;;;4952694;28;20039;-73
2022/06/23 08:13:18;;;;;;;1999.90;999.90;;;31.10;93.80;;;;;;4956451;28;20447;-73
2022/06/23 08:18:58;;;;;;;1999.90;999.90;;;31.40;93.30;;;;;;4961058;28;20066;-73
2022/06/23 08:21:28;;;;;;;1999.90;999.90;;;32.20;91.70;;;;;;4930272;29;20039;-80
2022/06/23 08:24:13;;;;;;;1999.90;999.90;;;32.90;91.60;;;;;;4956312;28;20498;-74
2022/06/23 08:26:45;;;;;;;1999.90;999.90;;;32.00;91.10;;;;;;4962079;28;20078;-73
2022/06/23 08:29:14;;;;;;;1999.90;999.90;;;31.90;91.40;;;;;;4954040;28;20027;-73
2022/06/23 08:31:40;;;;;;;1999.90;999.90;;;31.80;91.00;;;;;;4957302;28;20037;-73
2022/06/23 08:34:07;;;;;;;1999.90;999.90;;;31.70;92.20;;;;;;4953471;29;20022;-79
2022/06/23 08:36:45;;;;;;;1999.90;999.90;;;32.30;91.10;;;;;;4961570;28;20087;-74
2022/06/23 08:39:21;;;;;;;1999.90;999.90;;;33.10;90.20;;;;;;4954952;28;20105;-81
2022/06/23 08:42:24;;;;;;;1999.90;999.90;;;33.10;89.30;;;;;;4954650;28;20039;-75
2022/06/23 08:45:32;;;;;;;1999.90;999.90;;;33.40;89.90;;;;;;4958375;28;20035;-75
2022/06/23 08:48:27;;;;;;;1999.90;999.90;;;33.30;89.20;;;;;;4942376;28;20421;-82
2022/06/23 08:50:58;;;;;;;1999.90;999.90;;;33.20;90.00;;;;;;4933487;28;20430;-75
2022/06/23 08:53:48;;;;;;;1999.90;999.90;;;33.50;90.20;;;;;;4961764;28;20031;-84
2022/06/23 08:56:24;;;;;;;1999.90;999.90;;;34.30;87.40;;;;;;4955041;28;20027;-81
2022/06/23 08:58:56;;;;;;;1999.90;999.90;;;33.50;86.30;;;;;;4956156;28;20033;-83
2022/06/23 09:01:45;;;;;;;1999.90;999.90;;;32.30;89.10;;;;;;4952053;28;20098;-80
2022/06/23 09:04:42;;;;;;;1999.90;999.90;;;30.90;90.40;;;;;;4952017;28;20448;-72
2022/06/23 09:07:25;;;;;;;1999.90;999.90;;;29.50;93.20;;;;;;4951117;28;20039;-72
2022/06/23 09:09:59;;;;;;;1999.90;999.90;;;30.30;92.40;;;;;;4959832;28;20398;-76
2022/06/23 09:12:39;;;;;;;1999.90;999.90;;;32.40;90.60;;;;;;4952983;28;20050;-80
2022/06/23 09:15:39;;;;;;;1999.90;999.90;;;33.70;88.50;;;;;;4959926;28;20437;-80
2022/06/23 09:18:17;;;;;;;1999.90;999.90;;;34.70;87.00;;;;;;4938332;28;20031;-74
2022/06/23 09:21:08;;;;;;;1999.90;999.90;;;34.00;86.80;;;;;;4955344;28;20031;-74
2022/06/23 09:23:52;;;;;;;1999.90;999.90;;;34.50;87.10;;;;;;4956577;28;20038;-75
2022/06/23 09:26:33;;;;;;;1999.90;999.90;;;32.30;88.60;;;;;;4953258;28;20818;-78
2022/06/23 09:29:06;;;;;;;1999.90;999.90;;;30.80;91.20;;;;;;4951295;28;20023;-79
2022/06/23 09:31:48;;;;;;;1999.90;999.90;;;30.10;91.10;;;;;;4954318;28;20019;-78
2022/06/23 09:34:50;;;;;;;1999.90;999.90;;;27.30;93.70;;;;;;4957760;28;20106;-78
2022/06/23 09:37:46;;;;;;;1999.90;999.90;;;25.90;95.30;;;;;;4948326;28;20178;-71
2022/06/23 09:40:33;;;;;;;1999.90;999.90;;;24.80;97.20;;;;;;4956479;28;20042;-78
2022/06/23 09:43:27;;;;;;;1999.90;999.90;;;25.90;95.20;;;;;;4950245;28;20031;-77
2022/06/23 09:46:23;;;;;;;1999.90;999.90;;;25.10;96.90;;;;;;4955215;28;20118;-71
2022/06/23 09:49:02;;;;;;;1999.90;999.90;;;24.20;98.50;;;;;;4947846;29;20422;-70
2022/06/23 09:52:08;;;;;;;1999.90;999.90;;;24.10;99.10;;;;;;4958358;28;20454;-80
2022/06/23 09:54:43;;;;;;;1999.90;999.90;;;24.70;98.60;;;;;;4890435;29;20052;-72
2022/06/23 09:57:24;;;;;;;1999.90;999.90;;;24.60;99.10;;;;;;4935614;29;20043;-79
2022/06/23 10:00:25;;;;;;;1999.90;999.90;;;24.60;99.00;;;;;;4931134;29;20035;-71
2022/06/23 10:03:12;;;;;;;1999.90;999.90;;;24.90;98.10;;;;;;4895792;29;20107;-82
2022/06/23 10:05:59;;;;;;;1999.90;999.90;;;28.90;95.10;;;;;;4940854;29;20046;-72
2022/06/23 10:08:36;;;;;;;1999.90;999.90;;;30.40;92.00;;;;;;4939903;29;20047;-82
2022/06/23 10:11:05;;;;;;;1999.90;999.90;;;28.70;93.50;;;;;;4942132;29;20114;-70
2022/06/23 10:14:12;;;;;;;1999.90;999.90;;;27.10;94.70;;;;;;4933203;29;20042;-72
2022/06/23 10:16:56;;;;;;;1999.90;999.90;;;27.90;95.00;;;;;;4928511;29;20028;-81
2022/06/23 10:19:56;;;;;;;1999.90;999.90;;;30.80;92.10;;;;;;4941775;29;20082;-82
2022/06/23 10:22:46;;;;;;;1999.90;999.90;;;32.00;91.10;;;;;;4937242;29;20048;-71
2022/06/23 10:25:33;;;;;;;1999.90;999.90;;;32.90;89.80;;;;;;4928977;29;20070;-72
2022/06/23 10:28:26;;;;;;;1999.90;999.90;;;33.00;90.00;;;;;;4928807;29;20098;-83
2022/06/23 10:31:10;;;;;;;1999.90;999.90;;;31.40;90.40;;;;;;4940216;29;20042;-82
2022/06/23 10:33:48;;;;;;;1999.90;999.90;;;29.00;92.40;;;;;;4937998;29;20086;-71
2022/06/23 10:36:52;;;;;;;1999.90;999.90;;;28.90;92.20;;;;;;4929307;29;20136;-80
2022/06/23 10:39:45;;;;;;;1999.90;999.90;;;30.80;90.90;;;;;;4932846;29;20099;-72
2022/06/23 10:42:23;;;;;;;1999.90;999.90;;;30.70;90.50;;;;;;4937906;29;20038;-71
2022/06/23 10:45:31;;;;;;;1999.90;999.90;;;28.90;92.20;;;;;;4933710;29;20038;-82
2022/06/23 10:48:26;;;;;;;1999.90;999.90;;;28.40;93.30;;;;;;4924747;29;21109;-76
2022/06/23 10:51:01;;;;;;;1999.90;999.90;;;27.30;94.00;;;;;;4931819;29;20035;-71
2022/06/23 10:54:02;;;;;;;1999.90;999.90;;;27.10;94.10;;;;;;4928958;29;20034;-71
2022/06/23 10:56:57;;;;;;;1999.90;999.90;;;30.10;92.80;;;;;;4960666;28;20035;-83
2022/06/23 10:59:32;;;;;;;1999.90;999.90;;;32.30;89.40;;;;;;4954204;28;20035;-71
2022/06/23 11:02:38;;;;;;;1999.90;999.90;;;31.20;90.20;;;;;;4955229;28;20051;-71
2022/06/23 11:05:41;;;;;;;1999.90;999.90;;;30.00;90.80;;;;;;4962302;28;20042;-84
2022/06/23 11:08:20;;;;;;;1999.90;999.90;;;31.80;88.10;;;;;;4960833;28;20061;-71
2022/06/23 11:10:54;;;;;;;1999.90;999.90;;;31.70;88.40;;;;;;4969247;28;20085;-82
2022/06/23 11:13:29;;;;;;;1999.90;999.90;;;32.90;86.70;;;;;;4948500;28;20035;-82
2022/06/23 11:16:00;;;;;;;1999.90;999.90;;;32.40;86.10;;;;;;4955952;28;20032;-71
2022/06/23 11:18:50;;;;;;;1999.90;999.90;;;32.10;88.40;;;;;;4961797;28;20058;-83
2022/06/23 11:21:28;;;;;;;1999.90;999.90;;;32.90;86.90;;;;;;4953667;28;20035;-82
2022/06/23 11:24:29;;;;;;;1999.90;999.90;;;32.00;86.80;;;;;;4951772;28;20035;-72
2022/06/23 11:27:05;;;;;;;1999.90;999.90;;;30.10;90.80;;;;;;4936685;28;20047;-71
2022/06/23 11:29:58;;;;;;;1999.90;999.90;;;29.80;90.10;;;;;;4954921;28;20049;-83
2022/06/23 11:32:45;;;;;;;1999.90;999.90;;;31.20;89.20;;;;;;4955264;28;20110;-72
2022/06/23 11:35:26;;;;;;;1999.90;999.90;;;32.10;88.30;;;;;;4962162;28;20027;-84
2022/06/23 11:38:17;;;;;;;1999.90;999.90;;;30.50;87.60;;;;;;4940213;29;20493;-71
2022/06/23 11:40:53;;;;;;;1999.90;999.90;;;30.40;88.20;;;;;;4954112;28;20063;-82
2022/06/23 11:43:45;;;;;;;1999.90;999.90;;;30.20;86.50;;;;;;4956076;28;20110;-72
2022/06/23 11:46:29;;;;;;;1999.90;999.90;;;29.50;88.60;;;;;;4961759;28;20498;-83
2022/06/23 11:48:54;;;;;;;1999.90;999.90;;;29.30;90.60;;;;;;4960446;28;20027;-80
2022/06/23 11:51:39;;;;;;;1999.90;999.90;;;29.40;87.50;;;;;;4960989;28;20602;-81
2022/06/23 11:54:42;;;;;;;1999.90;999.90;;;27.80;90.40;;;;;;4955311;28;20051;-71
2022/06/23 11:57:08;;;;;;;1999.90;999.90;;;27.80;91.00;;;;;;4955663;28;20086;-70
2022/06/23 11:59:45;;;;;;;1999.90;999.90;;;27.70;91.20;;;;;;4947879;28;20043;-81
2022/06/23 12:02:12;;;;;;;1999.90;999.90;;;26.60;91.80;;;;;;4954657;28;20509;-82
2022/06/23 12:05:03;;;;;;;1999.90;999.90;;;26.00;93.40;;;;;;4913466;28;20067;-78
2022/06/23 12:07:32;;;;;;;1999.90;999.90;;;25.30;93.60;;;;;;4933914;29;20031;-70
2022/06/23 12:10:14;;;;;;;1999.90;999.90;;;24.90;93.90;;;;;;4933814;29;20028;-71
2022/06/23 12:12:43;;;;;;;1999.90;999.90;;;24.80;94.80;;;;;;4923530;29;20179;-71
2022/06/23 12:15:13;;;;;;;1999.90;999.90;;;24.40;95.70;;;;;;4933883;29;20038;-78
2022/06/23 12:17:48;;;;;;;1999.90;999.90;;;24.30;95.80;;;;;;4937825;29;20039;-79
2022/06/23 12:20:20;;;;;;;1999.90;999.90;;;24.30;95.70;;;;;;4928076;29;20168;-70
2022/06/23 12:22:50;;;;;;;1999.90;999.90;;;24.50;95.00;;;;;;4927370;29;20042;-70
2022/06/23 12:25:58;;;;;;;1999.90;999.90;;;24.40;95.90;;;;;;4927214;29;20114;-70
2022/06/23 12:28:42;;;;;;;1999.90;999.90;;;24.30;96.20;;;;;;4937820;29;20471;-81
2022/06/23 12:31:20;;;;;;;1999.90;999.90;;;24.00;97.20;;;;;;4924846;29;20103;-79
2022/06/23 12:33:49;;;;;;;1999.90;999.90;;;23.50;98.10;;;;;;4937557;29;20158;-70
2022/06/23 12:36:33;;;;;;;1999.90;999.90;;;23.20;99.90;;;;;;4919056;29;20497;-72
2022/06/23 12:39:06;;;;;;;1999.90;999.90;;;23.00;99.90;;;;;;4933069;29;20095;-72
2022/06/23 12:41:43;;;;;;;;;;;22.70;99.90;;;;;;4934517;29;20036;-82
2022/06/23 12:44:34;;;;;;;1999.90;999.90;;;22.50;99.90;;;;;;4930491;29;19921;-71
2022/06/23 12:47:28;;;;;;;1999.90;999.90;;;22.30;99.90;;;;;;4935856;29;20028;-83
2022/06/23 12:50:16;;;;;;;1999.90;999.90;;;22.20;99.90;;;;;;4933265;29;20055;-71
2022/06/23 12:53:15;;;;;;;1999.90;999.90;;;22.40;99.90;;;;;;4933362;29;20043;-84
2022/06/23 12:56:06;;;;;;;1999.90;999.90;;;22.80;99.90;;;;;;4931652;29;20040;-84
2022/06/23 12:58:47;;;;;;;1999.90;999.90;;;23.60;99.90;;;;;;4933929;29;20090;-72
2022/06/23 13:01:38;;;;;;;1999.90;999.90;;;23.90;99.80;;;;;;4934550;29;20029;-84
2022/06/23 13:04:13;;;;;;;1999.90;999.90;;;23.70;99.50;;;;;;4945077;29;20419;-84
2022/06/23 13:06:58;;;;;;;1999.90;999.90;;;23.60;98.30;;;;;;4920329;29;20403;-83
2022/06/23 13:09:37;;;;;;;1999.90;999.90;;;23.70;98.70;;;;;;4929270;29;20028;-85
2022/06/23 13:12:18;;;;;;;1999.90;999.90;;;24.20;97.00;;;;;;4939657;29;20154;-72
2022/06/23 13:15:14;;;;;;;1999.90;999.90;;;24.80;99.50;;;;;;4928210;29;20043;-79